createdAt,value
2022-09-22T05:31:57.754Z,6.75
2022-09-22T05:34:25.010Z,7.13
2022-09-22T05:36:52.145Z,6.43
2022-09-22T05:39:19.404Z,6.70
2022-09-22T05:41:49.829Z,6.85
2022-09-22T05:44:17.330Z,6.97
2022-09-22T05:46:46.670Z,6.32
2022-09-22T05:49:13.886Z,5.35
2022-09-22T05:51:42.634Z,6.35
2022-09-22T05:54:10.108Z,4.55
2022-09-22T05:56:37.474Z,2.95
2022-09-22T05:59:04.743Z,2.80
2022-09-22T06:01:32.121Z,4.28
2022-09-22T06:04:00.940Z,4.03
2022-09-22T06:06:28.536Z,3.83
2022-09-22T06:08:55.905Z,2.75
2022-09-22T06:11:24.464Z,3.80
2022-09-22T06:13:52.155Z,3.75
2022-09-22T06:16:20.696Z,3.53
2022-09-22T06:18:50.120Z,2.95
2022-09-22T06:21:18.943Z,2.45
2022-09-22T06:23:46.136Z,2.88
2022-09-22T06:26:15.800Z,3.40
2022-09-22T06:28:47.170Z,2.97
2022-09-22T06:31:16.247Z,2.78
2022-09-22T06:33:48.318Z,3.83
2022-09-22T06:36:27.829Z,5.70
2022-09-22T06:38:58.869Z,5.32
2022-09-22T06:41:26.793Z,5.05
2022-09-22T06:43:56.189Z,3.65
2022-09-22T06:46:28.012Z,3.55
2022-09-22T06:48:57.588Z,3.50
2022-09-22T06:51:28.097Z,3.30
2022-09-22T06:53:55.698Z,2.78
2022-09-22T06:56:25.100Z,3.20
2022-09-22T06:59:09.247Z,3.45
2022-09-22T07:01:38.126Z,2.80
2022-09-22T07:04:07.038Z,2.53
2022-09-22T07:06:35.141Z,2.58
2022-09-22T07:09:02.440Z,3.08
2022-09-22T07:11:30.708Z,2.83
2022-09-22T07:14:00.955Z,2.13
2022-09-22T07:16:28.556Z,2.33
2022-09-22T07:18:58.418Z,2.00
2022-09-22T07:21:33.014Z,2.13
2022-09-22T07:24:00.384Z,1.92
2022-09-22T07:26:32.611Z,1.30
2022-09-22T07:29:02.429Z,1.60
2022-09-22T07:31:32.318Z,1.58
2022-09-22T07:34:00.384Z,1.77
2022-09-22T07:36:30.489Z,1.35
2022-09-22T07:39:04.083Z,1.70
2022-09-22T07:41:32.679Z,1.23
2022-09-22T07:44:20.920Z,1.33
2022-09-22T07:46:48.260Z,1.92
2022-09-22T07:49:17.548Z,2.15
2022-09-22T07:51:45.395Z,1.52
2022-09-22T07:54:12.834Z,1.67
2022-09-22T07:56:43.314Z,1.30
2022-09-22T07:59:13.086Z,1.48
2022-09-22T08:01:44.841Z,1.27
2022-09-22T08:04:16.813Z,1.25
2022-09-22T08:06:49.113Z,1.30
2022-09-22T08:09:18.506Z,1.33
2022-09-22T08:11:50.873Z,1.05
2022-09-22T08:14:18.846Z,2.00
2022-09-22T08:16:46.473Z,1.10
2022-09-22T08:19:16.697Z,1.42
2022-09-22T08:21:49.106Z,1.35
2022-09-22T08:24:22.639Z,1.15
2022-09-22T08:26:52.790Z,0.88
2022-09-22T08:29:24.767Z,1.38
2022-09-22T08:31:52.400Z,1.00
2022-09-22T08:34:20.286Z,1.15
2022-09-22T08:36:48.655Z,0.82
2022-09-22T08:39:18.042Z,1.10
2022-09-22T08:42:11.750Z,0.82
2022-09-22T08:47:45.853Z,0.70
2022-09-22T08:50:43.972Z,0.85
2022-09-22T08:53:16.625Z,0.77
2022-09-22T08:55:49.600Z,1.13
2022-09-22T08:58:45.280Z,1.13
2022-09-22T09:01:29.438Z,1.00
2022-09-22T09:07:04.412Z,1.25
2022-09-22T09:09:49.967Z,1.08
2022-09-22T09:15:38.171Z,1.30
2022-09-22T09:18:18.031Z,1.45
2022-09-22T09:20:47.594Z,1.50
2022-09-22T09:26:19.655Z,1.05
2022-09-22T09:28:53.609Z,0.77
2022-09-22T09:31:46.865Z,0.93
2022-09-22T09:34:18.130Z,0.73
2022-09-22T09:36:53.118Z,1.38
2022-09-22T09:39:39.682Z,1.08
2022-09-22T09:42:27.291Z,1.02
2022-09-22T09:44:57.709Z,1.17
2022-09-22T09:50:26.013Z,1.35
2022-09-22T09:52:54.496Z,1.38
2022-09-22T09:55:27.362Z,0.90
2022-09-22T09:58:32.591Z,0.90
2022-09-22T10:01:01.232Z,0.57
2022-09-22T10:03:32.212Z,0.75
2022-09-22T10:06:07.030Z,1.02
2022-09-22T10:08:44.812Z,1.88
2022-09-22T10:11:16.197Z,1.17
2022-09-22T10:13:44.515Z,2.00
2022-09-22T10:19:18.137Z,0.98
2022-09-22T10:21:46.101Z,1.50
2022-09-22T10:24:32.055Z,1.00
2022-09-22T10:27:02.473Z,0.90
2022-09-22T10:29:32.790Z,1.10
2022-09-22T10:32:16.808Z,1.35
2022-09-22T10:34:47.691Z,1.98
2022-09-22T10:37:18.917Z,1.50
2022-09-22T10:39:50.095Z,1.58
2022-09-22T10:42:41.065Z,1.55
2022-09-22T10:45:14.342Z,1.50
2022-09-22T10:48:14.114Z,1.23
2022-09-22T10:51:15.711Z,0.95
2022-09-22T10:56:47.040Z,1.42
2022-09-22T10:59:40.209Z,1.52
2022-09-22T11:02:40.364Z,1.23
2022-09-22T11:08:31.205Z,1.27
2022-09-22T11:11:42.685Z,1.17
2022-09-22T11:14:42.998Z,1.10
2022-09-22T11:17:31.276Z,1.15
2022-09-22T11:20:28.465Z,1.55
2022-09-22T11:23:16.516Z,1.10
2022-09-22T11:26:01.875Z,1.48
2022-09-22T11:34:27.205Z,2.03
2022-09-22T11:37:25.547Z,1.33
2022-09-22T11:43:00.616Z,1.30
2022-09-22T11:55:02.545Z,1.17
2022-09-22T11:57:37.591Z,1.38
2022-09-22T12:00:17.311Z,1.63
2022-09-22T12:03:01.918Z,1.55
2022-09-22T12:05:42.739Z,1.40
2022-09-22T12:08:16.893Z,1.70
2022-09-22T12:10:45.923Z,1.38
2022-09-22T12:13:25.587Z,1.70
2022-09-22T12:16:05.943Z,1.20
2022-09-22T12:22:05.198Z,1.65
2022-09-22T12:24:34.555Z,1.60
2022-09-22T12:27:11.901Z,1.60
2022-09-22T12:29:39.553Z,1.30
2022-09-22T12:32:20.841Z,1.15
2022-09-22T12:34:49.121Z,1.65
2022-09-22T12:37:29.835Z,1.30
2022-09-22T12:40:16.855Z,1.20
2022-09-22T12:42:49.665Z,1.05
2022-09-22T12:45:33.263Z,1.05
2022-09-22T12:48:10.764Z,1.42
2022-09-22T12:50:42.444Z,0.98
2022-09-22T12:53:24.627Z,1.25
2022-09-22T12:55:55.051Z,1.05
2022-09-22T12:58:31.773Z,1.20
2022-09-22T13:01:34.660Z,1.20
2022-09-22T13:04:16.922Z,0.80
2022-09-22T13:09:26.165Z,0.90
2022-09-22T13:15:16.352Z,1.08
2022-09-22T13:17:48.699Z,1.08
2022-09-22T13:20:22.634Z,1.10
2022-09-22T13:22:52.173Z,0.75
2022-09-22T13:25:26.269Z,0.85
2022-09-22T13:30:48.867Z,1.00
2022-09-22T13:33:26.017Z,0.90
2022-09-22T13:42:10.828Z,1.00
2022-09-22T13:44:40.264Z,0.60
2022-09-22T13:47:17.291Z,1.08
2022-09-22T13:49:51.804Z,1.00
2022-09-22T13:52:22.276Z,1.00
2022-09-22T13:54:54.093Z,0.90
2022-09-22T13:57:29.704Z,1.00
2022-09-22T14:00:00.227Z,0.80
2022-09-22T14:02:31.936Z,1.00
2022-09-22T14:05:03.540Z,0.95
2022-09-22T14:07:45.077Z,1.30
2022-09-22T14:10:23.190Z,1.13
2022-09-22T14:12:51.241Z,0.70
2022-09-22T14:18:21.124Z,1.08
2022-09-22T14:20:48.830Z,0.77
2022-09-22T14:23:37.836Z,0.90
2022-09-22T14:26:22.888Z,0.98
2022-09-22T14:28:52.194Z,0.80
2022-09-22T14:31:27.492Z,0.93
2022-09-22T14:33:56.193Z,2.45
2022-09-22T14:36:25.860Z,1.13
2022-09-22T14:39:08.944Z,0.85
2022-09-22T14:41:37.891Z,1.17
2022-09-22T14:44:45.115Z,0.80
2022-09-22T14:47:30.114Z,1.15
2022-09-22T14:50:20.377Z,1.10
2022-09-22T14:53:01.731Z,0.85
2022-09-22T14:55:48.473Z,1.15
2022-09-22T14:58:23.643Z,0.88
2022-09-22T15:01:14.854Z,0.93
2022-09-22T15:03:52.317Z,1.13
2022-09-22T15:06:19.550Z,1.00
2022-09-22T15:08:51.328Z,0.95
2022-09-22T15:11:19.586Z,1.38
2022-09-22T15:13:50.762Z,1.17
2022-09-22T15:16:39.533Z,1.10
2022-09-22T15:19:11.955Z,0.82
2022-09-22T15:21:46.058Z,0.80
2022-09-22T15:24:26.150Z,1.17
2022-09-22T15:26:57.158Z,0.90
2022-09-22T15:29:25.051Z,1.27
2022-09-22T15:31:52.257Z,1.20
2022-09-22T15:34:19.441Z,1.42
2022-09-22T15:36:47.694Z,0.80
2022-09-22T15:39:24.437Z,1.30
2022-09-22T15:41:52.939Z,1.05
2022-09-22T15:44:20.545Z,0.93
2022-09-22T15:46:54.341Z,1.17
2022-09-22T15:49:26.005Z,0.90
2022-09-22T15:51:56.043Z,1.10
2022-09-22T15:54:24.918Z,1.10
2022-09-22T15:56:54.798Z,1.15
2022-09-22T15:59:26.843Z,0.85
